sensor_id;sensor_type;location;lat;lon;timestamp;P1;durP1;ratioP1;P2;durP2;ratioP2
22565;SDS011;11449;51.330;19.378;2023-04-03T00:00:48;35.60;;;7.50;;
22565;SDS011;11449;51.330;19.378;2023-04-03T00:05:57;44.70;;;8.00;;
22565;SDS011;11449;51.330;19.378;2023-04-03T00:11:04;47.60;;;8.60;;
22565;SDS011;11449;51.330;19.378;2023-04-03T00:16:12;103.50;;;13.80;;
22565;SDS011;11449;51.330;19.378;2023-04-03T00:21:20;85.40;;;12.40;;
22565;SDS011;11449;51.330;19.378;2023-04-03T00:26:27;51.20;;;9.30;;
22565;SDS011;11449;51.330;19.378;2023-04-03T00:31:35;65.40;;;9.60;;
22565;SDS011;11449;51.330;19.378;2023-04-03T00:36:44;65.90;;;10.20;;
22565;SDS011;11449;51.330;19.378;2023-04-03T00:41:52;48.00;;;7.30;;
22565;SDS011;11449;51.330;19.378;2023-04-03T00:47:00;51.90;;;8.60;;
22565;SDS011;11449;51.330;19.378;2023-04-03T00:52:09;42.20;;;7.70;;
22565;SDS011;11449;51.330;19.378;2023-04-03T00:57:19;51.10;;;8.20;;
22565;SDS011;11449;51.330;19.378;2023-04-03T01:02:28;83.80;;;11.80;;
22565;SDS011;11449;51.330;19.378;2023-04-03T01:07:37;81.40;;;11.30;;
22565;SDS011;11449;51.330;19.378;2023-04-03T01:12:46;66.40;;;10.40;;
22565;SDS011;11449;51.330;19.378;2023-04-03T01:17:54;45.80;;;7.50;;
22565;SDS011;11449;51.330;19.378;2023-04-03T01:28:20;56.00;;;8.10;;
22565;SDS011;11449;51.330;19.378;2023-04-03T01:33:28;51.10;;;7.60;;
22565;SDS011;11449;51.330;19.378;2023-04-03T01:38:36;45.30;;;5.80;;
22565;SDS011;11449;51.330;19.378;2023-04-03T01:43:44;41.50;;;5.90;;
22565;SDS011;11449;51.330;19.378;2023-04-03T01:48:51;47.50;;;5.80;;
22565;SDS011;11449;51.330;19.378;2023-04-03T01:53:59;55.50;;;12.70;;
22565;SDS011;11449;51.330;19.378;2023-04-03T01:59:07;46.80;;;6.10;;
22565;SDS011;11449;51.330;19.378;2023-04-03T02:04:15;52.70;;;7.80;;
22565;SDS011;11449;51.330;19.378;2023-04-03T02:09:23;53.70;;;8.60;;
22565;SDS011;11449;51.330;19.378;2023-04-03T02:14:30;46.90;;;8.20;;
22565;SDS011;11449;51.330;19.378;2023-04-03T02:19:38;59.80;;;8.90;;
22565;SDS011;11449;51.330;19.378;2023-04-03T02:24:47;55.80;;;7.90;;
22565;SDS011;11449;51.330;19.378;2023-04-03T02:29:55;53.50;;;8.20;;
22565;SDS011;11449;51.330;19.378;2023-04-03T02:35:03;50.20;;;7.60;;
22565;SDS011;11449;51.330;19.378;2023-04-03T02:40:11;46.50;;;7.90;;
22565;SDS011;11449;51.330;19.378;2023-04-03T02:45:19;70.70;;;9.00;;
22565;SDS011;11449;51.330;19.378;2023-04-03T02:50:27;56.20;;;8.00;;
22565;SDS011;11449;51.330;19.378;2023-04-03T02:55:35;53.60;;;8.30;;
22565;SDS011;11449;51.330;19.378;2023-04-03T03:00:43;54.20;;;8.10;;
22565;SDS011;11449;51.330;19.378;2023-04-03T03:06:00;50.40;;;7.90;;
22565;SDS011;11449;51.330;19.378;2023-04-03T03:11:08;60.70;;;9.70;;
22565;SDS011;11449;51.330;19.378;2023-04-03T03:16:16;54.10;;;8.60;;
22565;SDS011;11449;51.330;19.378;2023-04-03T03:21:24;77.40;;;10.90;;
22565;SDS011;11449;51.330;19.378;2023-04-03T03:26:32;84.70;;;12.80;;
22565;SDS011;11449;51.330;19.378;2023-04-03T03:31:40;72.90;;;10.90;;
22565;SDS011;11449;51.330;19.378;2023-04-03T03:36:48;56.40;;;9.10;;
22565;SDS011;11449;51.330;19.378;2023-04-03T03:41:56;48.10;;;8.20;;
22565;SDS011;11449;51.330;19.378;2023-04-03T03:47:04;53.20;;;9.40;;
22565;SDS011;11449;51.330;19.378;2023-04-03T03:52:13;46.30;;;8.10;;
22565;SDS011;11449;51.330;19.378;2023-04-03T03:57:21;47.40;;;8.50;;
22565;SDS011;11449;51.330;19.378;2023-04-03T04:02:29;37.90;;;7.40;;
22565;SDS011;11449;51.330;19.378;2023-04-03T04:07:38;44.90;;;8.00;;
22565;SDS011;11449;51.330;19.378;2023-04-03T04:12:46;49.40;;;8.80;;
22565;SDS011;11449;51.330;19.378;2023-04-03T04:17:56;53.60;;;9.10;;
22565;SDS011;11449;51.330;19.378;2023-04-03T04:23:04;52.10;;;9.10;;
22565;SDS011;11449;51.330;19.378;2023-04-03T04:28:12;48.90;;;9.10;;
22565;SDS011;11449;51.330;19.378;2023-04-03T04:33:21;58.40;;;10.40;;
22565;SDS011;11449;51.330;19.378;2023-04-03T04:38:29;52.60;;;10.20;;
22565;SDS011;11449;51.330;19.378;2023-04-03T04:43:37;63.10;;;10.50;;
22565;SDS011;11449;51.330;19.378;2023-04-03T04:48:45;55.60;;;10.10;;
22565;SDS011;11449;51.330;19.378;2023-04-03T04:53:54;53.80;;;10.80;;
22565;SDS011;11449;51.330;19.378;2023-04-03T04:59:02;53.30;;;9.90;;
22565;SDS011;11449;51.330;19.378;2023-04-03T05:04:10;56.90;;;8.30;;
22565;SDS011;11449;51.330;19.378;2023-04-03T05:09:22;52.30;;;10.10;;
22565;SDS011;11449;51.330;19.378;2023-04-03T05:14:30;64.50;;;12.30;;
22565;SDS011;11449;51.330;19.378;2023-04-03T05:19:41;67.60;;;14.50;;
22565;SDS011;11449;51.330;19.378;2023-04-03T05:24:49;52.30;;;11.90;;
22565;SDS011;11449;51.330;19.378;2023-04-03T05:29:58;63.20;;;12.60;;
22565;SDS011;11449;51.330;19.378;2023-04-03T05:35:08;65.10;;;12.30;;
22565;SDS011;11449;51.330;19.378;2023-04-03T05:40:17;67.90;;;11.50;;
22565;SDS011;11449;51.330;19.378;2023-04-03T05:45:27;62.70;;;11.60;;
22565;SDS011;11449;51.330;19.378;2023-04-03T05:50:35;67.90;;;11.50;;
22565;SDS011;11449;51.330;19.378;2023-04-03T05:55:43;69.70;;;11.90;;
22565;SDS011;11449;51.330;19.378;2023-04-03T06:00:51;53.00;;;11.20;;
22565;SDS011;11449;51.330;19.378;2023-04-03T06:05:59;61.30;;;10.00;;
22565;SDS011;11449;51.330;19.378;2023-04-03T06:11:07;56.50;;;10.60;;
22565;SDS011;11449;51.330;19.378;2023-04-03T06:16:16;53.60;;;9.10;;
22565;SDS011;11449;51.330;19.378;2023-04-03T06:21:24;46.70;;;8.50;;
22565;SDS011;11449;51.330;19.378;2023-04-03T06:26:32;52.90;;;9.30;;
22565;SDS011;11449;51.330;19.378;2023-04-03T06:31:41;53.30;;;8.90;;
22565;SDS011;11449;51.330;19.378;2023-04-03T06:36:48;55.00;;;9.50;;
22565;SDS011;11449;51.330;19.378;2023-04-03T06:41:58;54.60;;;9.00;;
22565;SDS011;11449;51.330;19.378;2023-04-03T06:47:15;63.40;;;11.30;;
22565;SDS011;11449;51.330;19.378;2023-04-03T06:52:23;51.20;;;8.70;;
22565;SDS011;11449;51.330;19.378;2023-04-03T06:57:31;66.80;;;14.30;;
22565;SDS011;11449;51.330;19.378;2023-04-03T07:02:38;48.20;;;11.80;;
22565;SDS011;11449;51.330;19.378;2023-04-03T07:07:46;43.10;;;7.80;;
22565;SDS011;11449;51.330;19.378;2023-04-03T07:12:54;59.00;;;11.50;;
22565;SDS011;11449;51.330;19.378;2023-04-03T07:18:01;67.00;;;11.90;;
22565;SDS011;11449;51.330;19.378;2023-04-03T07:23:09;49.20;;;7.90;;
22565;SDS011;11449;51.330;19.378;2023-04-03T07:28:18;57.40;;;8.50;;
22565;SDS011;11449;51.330;19.378;2023-04-03T07:33:26;46.80;;;8.10;;
22565;SDS011;11449;51.330;19.378;2023-04-03T07:38:34;58.00;;;8.00;;
22565;SDS011;11449;51.330;19.378;2023-04-03T07:43:43;55.10;;;8.70;;
22565;SDS011;11449;51.330;19.378;2023-04-03T07:48:51;49.10;;;7.60;;
22565;SDS011;11449;51.330;19.378;2023-04-03T07:53:58;47.90;;;7.30;;
22565;SDS011;11449;51.330;19.378;2023-04-03T07:59:06;57.30;;;9.20;;
22565;SDS011;11449;51.330;19.378;2023-04-03T08:04:14;50.40;;;8.90;;
22565;SDS011;11449;51.330;19.378;2023-04-03T08:09:22;54.90;;;9.10;;
22565;SDS011;11449;51.330;19.378;2023-04-03T08:14:31;41.00;;;7.10;;
22565;SDS011;11449;51.330;19.378;2023-04-03T08:19:39;43.30;;;7.00;;
22565;SDS011;11449;51.330;19.378;2023-04-03T08:24:47;44.60;;;7.60;;
22565;SDS011;11449;51.330;19.378;2023-04-03T08:29:55;45.60;;;7.10;;
22565;SDS011;11449;51.330;19.378;2023-04-03T08:35:03;51.70;;;8.50;;
22565;SDS011;11449;51.330;19.378;2023-04-03T08:40:13;37.90;;;6.40;;
22565;SDS011;11449;51.330;19.378;2023-04-03T08:50:48;38.30;;;6.40;;
22565;SDS011;11449;51.330;19.378;2023-04-03T08:55:57;38.50;;;6.00;;
22565;SDS011;11449;51.330;19.378;2023-04-03T09:01:07;43.80;;;6.80;;
22565;SDS011;11449;51.330;19.378;2023-04-03T09:06:26;42.50;;;6.60;;
22565;SDS011;11449;51.330;19.378;2023-04-03T09:17:03;49.10;;;10.90;;
22565;SDS011;11449;51.330;19.378;2023-04-03T09:22:20;35.00;;;7.20;;
22565;SDS011;11449;51.330;19.378;2023-04-03T09:27:28;30.20;;;8.90;;
22565;SDS011;11449;51.330;19.378;2023-04-03T09:32:36;26.40;;;8.10;;
22565;SDS011;11449;51.330;19.378;2023-04-03T09:37:45;53.20;;;16.50;;
22565;SDS011;11449;51.330;19.378;2023-04-03T09:42:54;32.50;;;6.40;;
22565;SDS011;11449;51.330;19.378;2023-04-03T09:53:28;34.50;;;7.20;;
22565;SDS011;11449;51.330;19.378;2023-04-03T09:58:39;43.80;;;7.50;;
22565;SDS011;11449;51.330;19.378;2023-04-03T10:14:24;37.60;;;6.50;;
22565;SDS011;11449;51.330;19.378;2023-04-03T10:19:38;41.30;;;7.50;;
22565;SDS011;11449;51.330;19.378;2023-04-03T10:25:02;35.50;;;6.40;;
22565;SDS011;11449;51.330;19.378;2023-04-03T10:40:51;47.90;;;7.20;;
22565;SDS011;11449;51.330;19.378;2023-04-03T10:46:02;48.70;;;7.20;;
22565;SDS011;11449;51.330;19.378;2023-04-03T11:01:34;39.10;;;7.90;;
22565;SDS011;11449;51.330;19.378;2023-04-03T11:06:49;41.70;;;7.40;;
22565;SDS011;11449;51.330;19.378;2023-04-03T11:17:33;35.60;;;6.10;;
22565;SDS011;11449;51.330;19.378;2023-04-03T11:22:42;43.20;;;7.30;;
22565;SDS011;11449;51.330;19.378;2023-04-03T11:28:00;48.80;;;9.60;;
22565;SDS011;11449;51.330;19.378;2023-04-03T11:38:21;36.40;;;6.80;;
22565;SDS011;11449;51.330;19.378;2023-04-03T11:43:31;48.70;;;10.10;;
22565;SDS011;11449;51.330;19.378;2023-04-03T11:48:43;39.90;;;7.10;;
22565;SDS011;11449;51.330;19.378;2023-04-03T11:53:52;63.60;;;13.70;;
22565;SDS011;11449;51.330;19.378;2023-04-03T12:04:21;41.70;;;7.00;;
22565;SDS011;11449;51.330;19.378;2023-04-03T12:09:31;29.60;;;5.50;;
22565;SDS011;11449;51.330;19.378;2023-04-03T12:19:48;38.40;;;7.10;;
22565;SDS011;11449;51.330;19.378;2023-04-03T12:24:56;41.90;;;8.30;;
22565;SDS011;11449;51.330;19.378;2023-04-03T12:35:26;70.90;;;9.20;;
22565;SDS011;11449;51.330;19.378;2023-04-03T12:45:56;42.10;;;6.40;;
22565;SDS011;11449;51.330;19.378;2023-04-03T12:51:07;40.50;;;5.20;;
22565;SDS011;11449;51.330;19.378;2023-04-03T12:56:20;38.90;;;5.00;;
22565;SDS011;11449;51.330;19.378;2023-04-03T13:01:28;49.70;;;9.90;;
22565;SDS011;11449;51.330;19.378;2023-04-03T13:06:40;39.80;;;4.90;;
22565;SDS011;11449;51.330;19.378;2023-04-03T13:11:49;42.70;;;6.50;;
22565;SDS011;11449;51.330;19.378;2023-04-03T13:17:06;43.50;;;5.90;;
22565;SDS011;11449;51.330;19.378;2023-04-03T13:27:25;42.30;;;5.00;;
22565;SDS011;11449;51.330;19.378;2023-04-03T13:32:33;45.70;;;8.70;;
22565;SDS011;11449;51.330;19.378;2023-04-03T13:37:52;45.40;;;6.40;;
22565;SDS011;11449;51.330;19.378;2023-04-03T13:43:01;53.20;;;8.30;;
22565;SDS011;11449;51.330;19.378;2023-04-03T13:48:22;38.60;;;7.50;;
22565;SDS011;11449;51.330;19.378;2023-04-03T13:53:31;48.40;;;7.60;;
22565;SDS011;11449;51.330;19.378;2023-04-03T13:58:39;46.40;;;8.00;;
22565;SDS011;11449;51.330;19.378;2023-04-03T14:08:50;57.00;;;8.80;;
22565;SDS011;11449;51.330;19.378;2023-04-03T14:14:00;59.60;;;10.20;;
22565;SDS011;11449;51.330;19.378;2023-04-03T14:19:14;55.20;;;8.00;;
22565;SDS011;11449;51.330;19.378;2023-04-03T14:24:24;53.30;;;6.50;;
22565;SDS011;11449;51.330;19.378;2023-04-03T14:29:31;41.10;;;5.10;;
22565;SDS011;11449;51.330;19.378;2023-04-03T14:34:34;53.20;;;6.40;;
22565;SDS011;11449;51.330;19.378;2023-04-03T14:39:43;38.80;;;7.50;;
22565;SDS011;11449;51.330;19.378;2023-04-03T14:44:51;50.10;;;7.10;;
22565;SDS011;11449;51.330;19.378;2023-04-03T14:50:00;68.00;;;16.50;;
22565;SDS011;11449;51.330;19.378;2023-04-03T14:55:08;58.40;;;6.50;;
22565;SDS011;11449;51.330;19.378;2023-04-03T15:00:17;38.20;;;4.90;;
22565;SDS011;11449;51.330;19.378;2023-04-03T15:05:25;44.40;;;7.80;;
22565;SDS011;11449;51.330;19.378;2023-04-03T15:10:33;56.70;;;11.40;;
22565;SDS011;11449;51.330;19.378;2023-04-03T15:15:42;74.20;;;14.60;;
22565;SDS011;11449;51.330;19.378;2023-04-03T15:20:49;61.00;;;11.00;;
22565;SDS011;11449;51.330;19.378;2023-04-03T15:25:57;59.30;;;10.50;;
22565;SDS011;11449;51.330;19.378;2023-04-03T15:31:05;70.00;;;14.30;;
22565;SDS011;11449;51.330;19.378;2023-04-03T15:36:13;56.60;;;13.90;;
22565;SDS011;11449;51.330;19.378;2023-04-03T15:41:21;50.00;;;11.10;;
22565;SDS011;11449;51.330;19.378;2023-04-03T15:46:29;47.00;;;7.90;;
22565;SDS011;11449;51.330;19.378;2023-04-03T15:51:36;44.10;;;9.00;;
22565;SDS011;11449;51.330;19.378;2023-04-03T15:56:44;57.90;;;12.60;;
22565;SDS011;11449;51.330;19.378;2023-04-03T16:01:52;45.30;;;9.30;;
22565;SDS011;11449;51.330;19.378;2023-04-03T16:07:01;84.20;;;15.90;;
22565;SDS011;11449;51.330;19.378;2023-04-03T16:12:09;84.60;;;15.20;;
22565;SDS011;11449;51.330;19.378;2023-04-03T16:17:17;59.60;;;12.60;;
22565;SDS011;11449;51.330;19.378;2023-04-03T16:22:25;44.50;;;8.20;;
22565;SDS011;11449;51.330;19.378;2023-04-03T16:27:35;60.30;;;12.20;;
22565;SDS011;11449;51.330;19.378;2023-04-03T16:32:43;48.30;;;8.10;;
22565;SDS011;11449;51.330;19.378;2023-04-03T16:37:50;50.10;;;8.80;;
22565;SDS011;11449;51.330;19.378;2023-04-03T16:42:59;66.80;;;11.60;;
22565;SDS011;11449;51.330;19.378;2023-04-03T16:48:07;86.60;;;15.40;;
22565;SDS011;11449;51.330;19.378;2023-04-03T16:53:14;52.70;;;9.10;;
22565;SDS011;11449;51.330;19.378;2023-04-03T16:58:22;66.40;;;10.60;;
22565;SDS011;11449;51.330;19.378;2023-04-03T17:03:30;68.30;;;12.30;;
22565;SDS011;11449;51.330;19.378;2023-04-03T17:08:38;62.20;;;11.90;;
22565;SDS011;11449;51.330;19.378;2023-04-03T17:13:46;81.70;;;15.50;;
22565;SDS011;11449;51.330;19.378;2023-04-03T17:18:54;69.00;;;12.50;;
22565;SDS011;11449;51.330;19.378;2023-04-03T17:24:03;64.70;;;11.70;;
22565;SDS011;11449;51.330;19.378;2023-04-03T17:29:11;51.10;;;10.80;;
22565;SDS011;11449;51.330;19.378;2023-04-03T17:34:19;52.40;;;9.50;;
22565;SDS011;11449;51.330;19.378;2023-04-03T17:39:26;47.20;;;9.50;;
22565;SDS011;11449;51.330;19.378;2023-04-03T17:44:34;54.00;;;9.50;;
22565;SDS011;11449;51.330;19.378;2023-04-03T17:49:42;75.60;;;13.50;;
22565;SDS011;11449;51.330;19.378;2023-04-03T17:54:51;76.60;;;14.80;;
22565;SDS011;11449;51.330;19.378;2023-04-03T17:59:59;83.80;;;14.30;;
22565;SDS011;11449;51.330;19.378;2023-04-03T18:05:13;109.30;;;15.10;;
22565;SDS011;11449;51.330;19.378;2023-04-03T18:10:21;69.30;;;13.30;;
22565;SDS011;11449;51.330;19.378;2023-04-03T18:15:29;102.30;;;18.00;;
22565;SDS011;11449;51.330;19.378;2023-04-03T18:20:37;77.30;;;13.50;;
22565;SDS011;11449;51.330;19.378;2023-04-03T18:25:45;97.70;;;17.40;;
22565;SDS011;11449;51.330;19.378;2023-04-03T18:30:52;62.10;;;12.10;;
22565;SDS011;11449;51.330;19.378;2023-04-03T18:36:00;59.80;;;10.00;;
22565;SDS011;11449;51.330;19.378;2023-04-03T18:41:08;77.50;;;13.00;;
22565;SDS011;11449;51.330;19.378;2023-04-03T18:46:16;73.70;;;11.90;;
22565;SDS011;11449;51.330;19.378;2023-04-03T18:51:24;91.80;;;13.30;;
22565;SDS011;11449;51.330;19.378;2023-04-03T18:56:32;94.80;;;17.10;;
22565;SDS011;11449;51.330;19.378;2023-04-03T19:01:40;93.70;;;14.60;;
22565;SDS011;11449;51.330;19.378;2023-04-03T19:06:48;57.60;;;11.50;;
22565;SDS011;11449;51.330;19.378;2023-04-03T19:11:56;76.80;;;14.30;;
22565;SDS011;11449;51.330;19.378;2023-04-03T19:17:04;57.70;;;9.80;;
22565;SDS011;11449;51.330;19.378;2023-04-03T19:22:14;65.20;;;12.20;;
22565;SDS011;11449;51.330;19.378;2023-04-03T19:27:22;61.60;;;10.80;;
22565;SDS011;11449;51.330;19.378;2023-04-03T19:32:30;67.30;;;11.80;;
22565;SDS011;11449;51.330;19.378;2023-04-03T19:37:38;68.00;;;11.30;;
22565;SDS011;11449;51.330;19.378;2023-04-03T19:42:45;61.30;;;10.70;;
22565;SDS011;11449;51.330;19.378;2023-04-03T19:47:53;64.30;;;11.10;;
22565;SDS011;11449;51.330;19.378;2023-04-03T19:53:01;73.70;;;13.50;;
22565;SDS011;11449;51.330;19.378;2023-04-03T19:58:09;83.30;;;13.40;;
22565;SDS011;11449;51.330;19.378;2023-04-03T20:03:16;122.60;;;15.40;;
22565;SDS011;11449;51.330;19.378;2023-04-03T20:08:24;76.10;;;12.80;;
22565;SDS011;11449;51.330;19.378;2023-04-03T20:13:34;68.20;;;11.50;;
22565;SDS011;11449;51.330;19.378;2023-04-03T20:18:41;68.20;;;11.20;;
22565;SDS011;11449;51.330;19.378;2023-04-03T20:23:49;79.30;;;13.30;;
22565;SDS011;11449;51.330;19.378;2023-04-03T20:28:59;73.90;;;13.50;;
22565;SDS011;11449;51.330;19.378;2023-04-03T20:34:07;62.30;;;10.90;;
22565;SDS011;11449;51.330;19.378;2023-04-03T20:39:14;92.80;;;14.20;;
22565;SDS011;11449;51.330;19.378;2023-04-03T20:44:23;91.20;;;16.00;;
22565;SDS011;11449;51.330;19.378;2023-04-03T20:49:30;87.70;;;14.40;;
22565;SDS011;11449;51.330;19.378;2023-04-03T20:54:39;84.80;;;11.20;;
22565;SDS011;11449;51.330;19.378;2023-04-03T20:59:50;86.20;;;10.80;;
22565;SDS011;11449;51.330;19.378;2023-04-03T21:04:58;84.60;;;11.30;;
22565;SDS011;11449;51.330;19.378;2023-04-03T21:20:54;71.90;;;12.60;;
22565;SDS011;11449;51.330;19.378;2023-04-03T21:26:02;44.00;;;8.20;;
22565;SDS011;11449;51.330;19.378;2023-04-03T21:31:10;43.40;;;8.40;;
22565;SDS011;11449;51.330;19.378;2023-04-03T21:36:21;48.50;;;9.30;;
22565;SDS011;11449;51.330;19.378;2023-04-03T21:41:29;72.10;;;14.70;;
22565;SDS011;11449;51.330;19.378;2023-04-03T21:46:37;74.80;;;15.30;;
22565;SDS011;11449;51.330;19.378;2023-04-03T21:51:45;80.20;;;14.80;;
22565;SDS011;11449;51.330;19.378;2023-04-03T21:56:52;73.00;;;13.20;;
22565;SDS011;11449;51.330;19.378;2023-04-03T22:02:00;66.30;;;12.60;;
22565;SDS011;11449;51.330;19.378;2023-04-03T22:07:08;64.00;;;12.60;;
22565;SDS011;11449;51.330;19.378;2023-04-03T22:12:16;43.40;;;10.00;;
22565;SDS011;11449;51.330;19.378;2023-04-03T22:17:24;66.10;;;10.30;;
22565;SDS011;11449;51.330;19.378;2023-04-03T22:22:32;54.30;;;9.80;;
22565;SDS011;11449;51.330;19.378;2023-04-03T22:27:39;66.90;;;11.10;;
22565;SDS011;11449;51.330;19.378;2023-04-03T22:32:48;41.20;;;8.60;;
22565;SDS011;11449;51.330;19.378;2023-04-03T22:37:56;52.90;;;9.90;;
22565;SDS011;11449;51.330;19.378;2023-04-03T22:43:03;48.20;;;9.60;;
22565;SDS011;11449;51.330;19.378;2023-04-03T22:48:11;52.90;;;9.00;;
22565;SDS011;11449;51.330;19.378;2023-04-03T22:53:19;46.90;;;9.40;;
22565;SDS011;11449;51.330;19.378;2023-04-03T22:58:27;51.90;;;9.10;;
22565;SDS011;11449;51.330;19.378;2023-04-03T23:03:37;44.60;;;9.00;;
22565;SDS011;11449;51.330;19.378;2023-04-03T23:08:45;44.00;;;8.60;;
22565;SDS011;11449;51.330;19.378;2023-04-03T23:13:52;44.80;;;8.40;;
22565;SDS011;11449;51.330;19.378;2023-04-03T23:19:00;44.30;;;7.80;;
22565;SDS011;11449;51.330;19.378;2023-04-03T23:24:08;49.50;;;9.30;;
22565;SDS011;11449;51.330;19.378;2023-04-03T23:29:15;44.00;;;7.50;;
22565;SDS011;11449;51.330;19.378;2023-04-03T23:34:23;42.10;;;8.40;;
22565;SDS011;11449;51.330;19.378;2023-04-03T23:39:31;42.80;;;7.40;;
22565;SDS011;11449;51.330;19.378;2023-04-03T23:44:39;49.50;;;8.10;;
22565;SDS011;11449;51.330;19.378;2023-04-03T23:49:47;42.00;;;7.60;;
22565;SDS011;11449;51.330;19.378;2023-04-03T23:54:54;47.80;;;9.90;;
